Catàleg de serveis del Meteocat

Dades de l'estació automàtica Torres de Segre

?
?
Resum diari 21:00 TU
Dades diàries de l'estació meteorològica
Temperatura mitjana 3.7 °C
Temperatura màxima 4.5 °C 14:25 TU
Temperatura mínima 2.8 °C 20:39 TU
Humitat relativa mitjana 95%
Precipitació acumulada 0.2 mm
Ratxa màxima del vent (2 m) 10.8 km/h - 315º 12:27 TU
Irradiació solar global 1.5 MJ/m2

El tram horari està expressat en Temps Universal (TU). Cal sumar una hora en horari d'hivern i dues en horari d'estiu per passar a l'hora oficial.

Torres de Segre

Metadades estació meteorol´gica
Municipi Torres de Segre
Comarca Segrià
Altitud 215 m
Data alta 02.07.2007
Estat actual Operativa
Dades de període
Període
TU
TM
°C
TX
°C
TN
°C
HRM
%
PPT
mm
VVM (2 m)
km/h
DVM (2 m)
graus
VVX (2 m)
km/h
RS
W/m2
00:00 - 00:30 3.9 3.9 3.9 99 0.0 3.6 285 8.3 0
00:30 - 01:00 4.0 4.0 3.9 99 0.0 3.6 301 8.3 0
01:00 - 01:30 3.8 3.9 3.8 99 0.1 4.0 301 7.6 0
01:30 - 02:00 3.8 3.8 3.7 99 0.0 4.7 292 10.4 0
02:00 - 02:30 3.7 3.8 3.6 99 0.0 5.0 273 9.4 0
02:30 - 03:00 3.5 3.6 3.4 99 0.0 5.0 268 9.7 0
03:00 - 03:30 3.4 3.4 3.3 99 0.0 5.0 273 10.4 0
03:30 - 04:00 3.3 3.4 3.3 99 0.1 5.4 257 10.1 0
04:00 - 04:30 3.3 3.5 3.3 98 0.0 5.4 268 9.0 0
04:30 - 05:00 3.5 3.6 3.5 98 0.0 4.0 246 7.2 0
05:00 - 05:30 3.5 3.5 3.4 96 0.0 4.0 254 8.6 0
05:30 - 06:00 3.4 3.5 3.3 96 0.0 5.0 237 9.4 0
06:00 - 06:30 3.3 3.3 3.2 95 0.0 4.3 260 9.4 0
06:30 - 07:00 3.1 3.3 3.1 96 0.0 4.3 284 7.9 0
07:00 - 07:30 3.1 3.1 3.1 97 0.0 2.5 342 7.6 0
07:30 - 08:00 3.1 3.1 3.1 97 0.0 0.7 319 2.9 4
08:00 - 08:30 3.1 3.2 3.1 97 0.0 0.0 328 1.8 14
08:30 - 09:00 3.1 3.2 3.0 98 0.0 0.7 335 2.9 24
09:00 - 09:30 3.2 3.3 3.1 97 0.0 3.6 254 9.4 28
09:30 - 10:00 3.2 3.3 3.2 98 0.0 6.1 233 9.7 42
10:00 - 10:30 3.4 3.5 3.3 98 0.0 5.0 252 9.0 57
10:30 - 11:00 3.6 3.8 3.4 98 0.0 5.0 260 9.4 94
11:00 - 11:30 3.8 4.0 3.6 98 0.0 4.0 275 7.9 76
11:30 - 12:00 4.0 4.1 3.9 96 0.0 5.0 291 9.0 78
12:00 - 12:30 4.1 4.2 4.0 94 0.0 5.4 296 10.8 73
12:30 - 13:00 4.2 4.2 4.1 93 0.0 5.0 301 8.6 86
13:00 - 13:30 4.2 4.3 4.1 93 0.0 4.0 318 9.4 53
13:30 - 14:00 4.1 4.2 4.1 93 0.0 3.6 310 8.3 28
14:00 - 14:30 4.3 4.5 4.2 92 0.0 3.6 309 7.2 62
14:30 - 15:00 4.4 4.4 4.3 92 0.0 4.0 331 7.9 49
15:00 - 15:30 4.4 4.4 4.3 91 0.0 3.6 342 7.2 34
15:30 - 16:00 4.4 4.4 4.3 91 0.0 2.9 349 5.8 28
16:00 - 16:30 4.3 4.4 4.3 91 0.0 2.2 19 5.8 13
16:30 - 17:00 4.3 4.3 4.2 91 0.0 1.1 65 2.9 2
17:00 - 17:30 4.2 4.2 4.2 92 0.0 1.1 66 3.2 0
17:30 - 18:00 4.2 4.2 4.2 91 0.0 2.2 83 4.0 0
18:00 - 18:30 3.9 4.2 3.5 90 0.0 3.6 146 6.5 0
18:30 - 19:00 3.5 3.6 3.2 94 0.0 4.0 141 5.4 0
19:00 - 19:30 3.4 3.7 3.1 92 0.0 4.3 101 5.8 0
19:30 - 20:00 3.3 3.4 3.0 92 0.0 3.6 83 5.0 0
20:00 - 20:30 3.1 3.3 2.9 93 0.0 3.6 72 6.1 0
20:30 - 21:00 2.9 3.1 2.8 94 0.0 2.5 80 4.7 0
21:00 - 21:30 3.2 3.4 3.0 94 0.0 1.8 60 4.0 0

Les dades en taronja només han passat un control de qualitat automàtic. Resta pendent la seva validació definitiva.